Dades meteomassalio
Diari Summary for Febrer 12, 2018 Units:  English    Metric   Both
« Previous Day
Next Day »
Diari Semanal Mensual Anual Personalitzat
  Maxima: Minima: Mijana:
Temperatura: TemperatureC °F 2.8 °F 7.5 °F
Rosada: DewpointC °F -2.9 °F 1.6 °F
Humitat: Humidity % 44 % 67 %
Velocitat del vent: WindSpeedKMH mph 14.8 mph 32.8 mph
Racha vent: WindSpeedGustKMH mph - -
Vent:- - NW
Pressio: PressurehPa in 1018.8 in -
Pluja: 0.3 in    
Historical Graphs
 
 
Tabular Data for Febrer 12, 2018
Time Temperature Dew Point Pressure Wind Wind Speed Wind Gust Humidity Rainfall Rate (Hourly) solar Conditions
TemperatureC °F DewpointC °F PressurehPa in Calm     Humidity % HourlyPrecipMM in SolarRadiationWatts/m^2 W/m2 Conditions
00:03 10.0 °F 6.9 °F 1019.9 in NNW 33.3 mph 33.3 mph 81 % 0.0 in 0.0 W/m2 CLR
00:08 10.0 °F 7.1 °F 1019.9 in NNW 27.8 mph 27.8 mph 82 % 0.0 in 0.0 W/m2 CLR
00:13 9.4 °F 6.5 °F 1019.9 in NNW 25.9 mph 25.9 mph 82 % 0.0 in 0.0 W/m2 CLR
00:18 9.4 °F 6.7 °F 1019.9 in NNW 25.9 mph 25.9 mph 83 % 0.0 in 0.0 W/m2 CLR
00:23 9.4 °F 6.5 °F 1019.9 in NNW 27.8 mph 27.8 mph 82 % 0.0 in 0.0 W/m2 CLR
00:28 9.4 °F 6.5 °F 1019.9 in NW 24.1 mph 24.1 mph 82 % 0.0 in 0.0 W/m2 CLR
00:33 9.4 °F 6.5 °F 1019.9 in NNW 22.2 mph 22.2 mph 82 % 0.0 in 0.0 W/m2 CLR
00:38 9.4 °F 6.7 °F 1019.9 in NW 24.1 mph 24.1 mph 83 % 0.0 in 0.0 W/m2 CLR
00:43 9.4 °F 6.9 °F 1019.9 in NW 31.5 mph 31.5 mph 84 % 0.0 in 0.0 W/m2 CLR
00:48 9.4 °F 6.9 °F 1019.9 in NNW 25.9 mph 25.9 mph 84 % 0.0 in 0.0 W/m2 CLR
00:53 9.4 °F 6.9 °F 1019.9 in North 29.6 mph 29.6 mph 84 % 0.0 in 0.0 W/m2 CLR
00:58 9.4 °F 6.7 °F 1019.9 in NW 20.9 mph 20.9 mph 83 % 0.0 in 0.0 W/m2 CLR
01:03 9.4 °F 6.7 °F 1019.9 in WNW 25.9 mph 25.9 mph 83 % 0.0 in 0.0 W/m2 CLR
01:08 9.4 °F 6.5 °F 1019.9 in NW 22.2 mph 22.2 mph 82 % 0.0 in 0.0 W/m2 CLR
01:13 9.4 °F 6.3 °F 1019.9 in NW 38.6 mph 38.6 mph 81 % 0.0 in 0.0 W/m2 CLR
01:18 9.4 °F 6.2 °F 1019.9 in NW 38.9 mph 38.9 mph 80 % 0.0 in 0.0 W/m2 CLR
01:23 9.4 °F 6.2 °F 1019.9 in WNW 31.5 mph 31.5 mph 80 % 0.0 in 0.0 W/m2 CLR
01:28 8.9 °F 5.6 °F 1019.9 in NW 29.6 mph 29.6 mph 80 % 0.0 in 0.0 W/m2 CLR
01:33 8.9 °F 5.6 °F 1019.9 in NW 29.6 mph 29.6 mph 80 % 0.0 in 0.0 W/m2 CLR
01:38 8.9 °F 5.4 °F 1020.2 in NNW 29.6 mph 29.6 mph 79 % 0.0 in 0.0 W/m2 CLR
01:43 8.9 °F 5.4 °F 1020.2 in WNW 27.8 mph 27.8 mph 79 % 0.0 in 0.0 W/m2 CLR
01:48 8.9 °F 5.4 °F 1020.2 in NW 27.8 mph 27.8 mph 79 % 0.0 in 0.0 W/m2 CLR
01:53 8.9 °F 5.4 °F 1019.9 in NW 35.4 mph 35.4 mph 79 % 0.0 in 0.0 W/m2 CLR
01:58 8.9 °F 5.8 °F 1020.2 in NNW 29.0 mph 29.0 mph 81 % 0.0 in 0.0 W/m2 CLR
02:03 8.9 °F 6.0 °F 1020.2 in NW 31.5 mph 31.5 mph 82 % 0.0 in 0.0 W/m2 CLR
02:08 8.3 °F 5.4 °F 1020.2 in NW 31.5 mph 31.5 mph 82 % 0.0 in 0.0 W/m2 CLR
02:13 8.3 °F 5.6 °F 1019.9 in NW 29.6 mph 29.6 mph 83 % 0.0 in 0.0 W/m2 CLR
02:18 8.3 °F 5.4 °F 1019.9 in WNW 20.4 mph 20.4 mph 82 % 0.0 in 0.0 W/m2 CLR
02:23 8.3 °F 5.4 °F 1019.9 in NW 27.8 mph 27.8 mph 82 % 0.0 in 0.0 W/m2 CLR
02:28 8.3 °F 5.4 °F 1020.2 in NW 31.5 mph 31.5 mph 82 % 0.0 in 0.0 W/m2 CLR
02:33 8.3 °F 5.3 °F 1020.2 in WNW 29.6 mph 29.6 mph 81 % 0.0 in 0.0 W/m2 CLR
02:38 8.3 °F 5.3 °F 1020.2 in NW 24.1 mph 24.1 mph 81 % 0.0 in 0.0 W/m2 CLR
02:43 8.3 °F 5.1 °F 1020.2 in NNW 27.8 mph 27.8 mph 80 % 0.0 in 0.0 W/m2 CLR
02:48 8.3 °F 4.9 °F 1020.2 in NW 37.0 mph 37.0 mph 79 % 0.0 in 0.0 W/m2 CLR
02:53 8.3 °F 4.9 °F 1019.9 in WNW 37.0 mph 37.0 mph 79 % 0.0 in 0.0 W/m2 CLR
02:58 8.3 °F 4.9 °F 1019.9 in NW 42.6 mph 42.6 mph 79 % 0.0 in 0.0 W/m2 CLR
03:03 8.3 °F 4.9 °F 1020.2 in NNW 46.3 mph 46.3 mph 79 % 0.3 in 0.0 W/m2 RA
03:08 8.3 °F 4.9 °F 1019.9 in WNW 46.3 mph 46.3 mph 79 % 0.3 in 0.0 W/m2
03:13 8.3 °F 4.7 °F 1019.9 in WNW 38.9 mph 38.9 mph 78 % 0.3 in 0.0 W/m2 CLR
03:18 8.3 °F 4.9 °F 1019.9 in NW 40.7 mph 40.7 mph 79 % 0.3 in 0.0 W/m2 CLR
03:23 8.3 °F 4.7 °F 1019.9 in NW 29.0 mph 31.4 mph 78 % 0.3 in 0.0 W/m2 CLR
03:28 8.3 °F 4.7 °F 1019.9 in NW 31.5 mph 31.5 mph 78 % 0.3 in 0.0 W/m2 CLR
03:33 7.8 °F 4.4 °F 1019.9 in NNW 38.9 mph 38.9 mph 79 % 0.3 in 0.0 W/m2 CLR
03:39 7.8 °F 4.4 °F 1019.9 in NW 29.6 mph 29.6 mph 79 % 0.3 in 0.0 W/m2 CLR
03:43 7.8 °F 4.4 °F 1019.9 in NW 37.0 mph 37.0 mph 79 % 0.3 in 0.0 W/m2 CLR
03:49 7.8 °F 4.6 °F 1019.9 in WNW 33.3 mph 33.3 mph 80 % 0.3 in 0.0 W/m2 CLR
03:54 7.8 °F 4.6 °F 1019.9 in NW 29.6 mph 29.6 mph 80 % 0.3 in 0.0 W/m2 CLR
03:59 7.8 °F 4.6 °F 1019.9 in NW 27.8 mph 27.8 mph 80 % 0.3 in 0.0 W/m2 CLR
04:04 7.8 °F 4.6 °F 1019.9 in NNW 37.0 mph 37.0 mph 80 % 0.0 in 0.0 W/m2 CLR
04:09 7.8 °F 4.4 °F 1019.9 in NW 27.8 mph 27.8 mph 79 % 0.0 in 0.0 W/m2 CLR
04:14 7.8 °F 4.6 °F 1019.9 in WNW 31.5 mph 31.5 mph 80 % 0.0 in 0.0 W/m2 CLR
04:19 7.8 °F 4.4 °F 1019.9 in NW 25.9 mph 25.9 mph 79 % 0.0 in 0.0 W/m2 CLR
04:24 7.8 °F 4.4 °F 1019.9 in NW 31.5 mph 31.5 mph 79 % 0.0 in 0.0 W/m2 CLR
04:29 7.8 °F 4.4 °F 1019.9 in NW 25.9 mph 25.9 mph 79 % 0.0 in 0.0 W/m2 CLR
04:34 7.8 °F 4.2 °F 1019.9 in NW 22.2 mph 22.2 mph 78 % 0.0 in 0.0 W/m2 CLR
04:39 7.8 °F 4.2 °F 1019.9 in NW 30.6 mph 30.6 mph 78 % 0.0 in 0.0 W/m2 CLR
04:44 7.8 °F 4.2 °F 1019.9 in NNW 29.6 mph 29.6 mph 78 % 0.0 in 0.0 W/m2 CLR
04:49 7.8 °F 4.2 °F 1019.9 in NW 22.2 mph 22.2 mph 78 % 0.0 in 0.0 W/m2 CLR
04:54 7.8 °F 4.4 °F 1019.9 in West 38.9 mph 38.9 mph 79 % 0.0 in 0.0 W/m2 CLR
04:59 7.8 °F 4.4 °F 1019.9 in NW 31.5 mph 31.5 mph 79 % 0.0 in 0.0 W/m2 CLR
05:04 7.8 °F 4.4 °F 1019.9 in WNW 35.2 mph 35.2 mph 79 % 0.0 in 0.0 W/m2 CLR
05:09 7.8 °F 4.4 °F 1019.5 in NW 29.6 mph 29.6 mph 79 % 0.0 in 0.0 W/m2 CLR
05:14 7.8 °F 4.4 °F 1019.5 in NW 31.5 mph 31.5 mph 79 % 0.0 in 0.0 W/m2 CLR
05:19 7.2 °F 3.8 °F 1019.9 in NW 35.2 mph 35.2 mph 79 % 0.0 in 0.0 W/m2 CLR
05:24 7.2 °F 3.8 °F 1019.5 in NW 37.0 mph 37.0 mph 79 % 0.0 in 0.0 W/m2 CLR
05:29 7.2 °F 3.7 °F 1019.5 in NW 27.8 mph 27.8 mph 78 % 0.0 in 0.0 W/m2 CLR
05:34 7.2 °F 3.8 °F 1019.5 in NNW 33.8 mph 33.8 mph 79 % 0.0 in 0.0 W/m2 CLR
05:39 7.2 °F 3.7 °F 1019.5 in NNW 37.0 mph 37.0 mph 78 % 0.0 in 0.0 W/m2 CLR
05:44 7.2 °F 3.8 °F 1019.5 in NW 31.5 mph 31.5 mph 79 % 0.0 in 0.0 W/m2 CLR
05:49 7.2 °F 3.7 °F 1019.5 in NW 38.9 mph 38.9 mph 78 % 0.0 in 0.0 W/m2 CLR
05:54 7.2 °F 3.7 °F 1019.2 in NW 29.6 mph 29.6 mph 78 % 0.0 in 0.0 W/m2 CLR
05:59 6.7 °F 3.1 °F 1019.2 in NNW 35.2 mph 35.2 mph 78 % 0.0 in 0.0 W/m2 CLR
06:04 7.2 °F 3.7 °F 1019.2 in NW 35.4 mph 35.4 mph 78 % 0.0 in 0.0 W/m2 CLR
06:09 7.2 °F 3.7 °F 1019.5 in NW 31.5 mph 31.5 mph 78 % 0.0 in 0.0 W/m2 CLR
06:14 7.2 °F 3.7 °F 1019.2 in NNW 33.3 mph 33.3 mph 78 % 0.0 in 0.0 W/m2 CLR
06:19 7.2 °F 3.4 °F 1019.2 in NW 31.5 mph 31.5 mph 77 % 0.0 in 0.0 W/m2 CLR
06:24 7.2 °F 3.4 °F 1019.2 in NW 37.0 mph 37.0 mph 77 % 0.0 in 0.0 W/m2 CLR
06:29 7.2 °F 3.4 °F 1019.2 in NNW 31.5 mph 31.5 mph 77 % 0.0 in 0.0 W/m2 CLR
06:34 7.2 °F 3.4 °F 1019.2 in NW 31.5 mph 31.5 mph 77 % 0.0 in 0.0 W/m2 CLR
06:39 7.2 °F 3.4 °F 1019.2 in NW 35.2 mph 35.2 mph 77 % 0.0 in 0.0 W/m2 CLR
06:44 7.2 °F 3.4 °F 1019.2 in NW 33.8 mph 33.8 mph 77 % 0.0 in 0.0 W/m2 CLR
06:49 6.7 °F 2.7 °F 1019.2 in NW 42.6 mph 42.6 mph 76 % 0.0 in 0.0 W/m2 CLR
06:54 6.7 °F 2.7 °F 1019.2 in NW 40.7 mph 40.7 mph 76 % 0.0 in 0.0 W/m2 CLR
06:59 6.7 °F 2.7 °F 1019.2 in NNW 31.5 mph 31.5 mph 76 % 0.0 in 0.0 W/m2 CLR
07:04 6.7 °F 2.7 °F 1019.5 in NNW 33.3 mph 33.3 mph 76 % 0.0 in 0.0 W/m2 CLR
07:09 6.7 °F 2.6 °F 1019.5 in NNW 44.4 mph 44.4 mph 75 % 0.0 in 0.0 W/m2 CLR
07:14 6.7 °F 2.7 °F 1019.5 in NNW 31.5 mph 31.5 mph 76 % 0.0 in 0.0 W/m2 CLR
07:19 6.7 °F 2.7 °F 1019.5 in NW 29.6 mph 29.6 mph 76 % 0.0 in 0.0 W/m2 CLR
07:24 6.7 °F 2.7 °F 1019.5 in NNW 40.7 mph 40.7 mph 76 % 0.0 in 0.0 W/m2 CLR
07:29 6.7 °F 2.7 °F 1019.5 in NNW 37.0 mph 37.0 mph 76 % 0.0 in 0.0 W/m2 CLR
07:34 6.1 °F 2.2 °F 1019.5 in North 41.8 mph 41.8 mph 76 % 0.0 in 0.0 W/m2 CLR
07:39 6.1 °F 2.0 °F 1019.5 in WNW 30.6 mph 30.6 mph 75 % 0.0 in 0.0 W/m2 CLR
07:44 6.1 °F 2.0 °F 1019.5 in NNW 33.3 mph 33.3 mph 75 % 0.0 in 0.0 W/m2 CLR
07:49 6.1 °F 2.0 °F 1019.5 in NNW 29.6 mph 29.6 mph 75 % 0.0 in 0.0 W/m2 OVC
07:54 6.1 °F 2.0 °F 1019.9 in NNW 37.0 mph 37.0 mph 75 % 0.0 in 0.0 W/m2 OVC
07:59 6.1 °F 2.0 °F 1019.5 in NW 31.5 mph 31.5 mph 75 % 0.0 in 0.0 W/m2 OVC
08:04 6.1 °F 2.0 °F 1019.9 in NNW 40.7 mph 40.7 mph 75 % 0.0 in 0.0 W/m2 OVC
08:09 6.1 °F 1.8 °F 1019.9 in NNW 35.2 mph 35.2 mph 74 % 0.0 in 5.0 W/m2 OVC
08:14 6.1 °F 2.0 °F 1019.5 in NNW 33.8 mph 33.8 mph 75 % 0.0 in 11.0 W/m2 BKN
08:19 6.1 °F 2.0 °F 1019.9 in NW 31.5 mph 31.5 mph 75 % 0.0 in 16.0 W/m2 BKN
08:24 6.1 °F 2.0 °F 1019.9 in WNW 42.6 mph 42.6 mph 75 % 0.0 in 23.0 W/m2 BKN
08:29 6.1 °F 2.0 °F 1019.9 in North 31.5 mph 31.5 mph 75 % 0.0 in 28.0 W/m2 BKN
08:34 6.1 °F 2.0 °F 1020.2 in NNW 31.5 mph 31.5 mph 75 % 0.0 in 33.0 W/m2 BKN
08:39 6.1 °F 2.0 °F 1020.2 in NW 31.5 mph 31.5 mph 75 % 0.0 in 40.0 W/m2 BKN
08:44 6.1 °F 1.8 °F 1020.2 in NW 32.2 mph 32.2 mph 74 % 0.0 in 44.0 W/m2 BKN
08:49 6.1 °F 1.8 °F 1020.2 in NNW 31.5 mph 31.5 mph 74 % 0.0 in 47.0 W/m2 SCT
08:54 6.1 °F 1.8 °F 1020.2 in NW 42.6 mph 42.6 mph 74 % 0.0 in 51.0 W/m2 SCT
08:59 6.1 °F 1.8 °F 1020.2 in NW 38.9 mph 38.9 mph 74 % 0.0 in 58.0 W/m2 SCT
09:04 6.1 °F 1.8 °F 1020.2 in NW 27.8 mph 27.8 mph 74 % 0.0 in 72.0 W/m2 SCT
09:09 6.1 °F 1.8 °F 1020.2 in NNW 25.7 mph 25.7 mph 74 % 0.0 in 76.0 W/m2 FEW
09:15 6.1 °F 1.8 °F 1020.5 in NNW 29.0 mph 29.0 mph 74 % 0.0 in 77.0 W/m2 FEW
09:19 6.1 °F 1.8 °F 1020.5 in NW 37.0 mph 37.0 mph 74 % 0.0 in 79.0 W/m2 FEW
09:24 6.1 °F 1.8 °F 1020.5 in NNW 38.9 mph 38.9 mph 74 % 0.0 in 84.0 W/m2 FEW
09:29 6.1 °F 1.8 °F 1020.5 in NW 22.5 mph 22.5 mph 74 % 0.0 in 91.0 W/m2 FEW
09:35 6.1 °F 1.8 °F 1020.5 in North 31.5 mph 31.5 mph 74 % 0.0 in 113.0 W/m2 CLR
09:40 6.1 °F 1.8 °F 1020.5 in NW 20.4 mph 20.4 mph 74 % 0.0 in 149.0 W/m2 CLR
09:45 6.7 °F 2.2 °F 1020.5 in NW 50.0 mph 50.0 mph 73 % 0.0 in 183.0 W/m2 CLR
09:50 6.7 °F 2.2 °F 1020.5 in WNW 32.2 mph 32.2 mph 73 % 0.0 in 174.0 W/m2 CLR
09:55 6.7 °F 2.2 °F 1020.2 in NW 27.8 mph 27.8 mph 73 % 0.0 in 160.0 W/m2 CLR
10:00 6.7 °F 2.0 °F 1020.2 in NW 40.2 mph 40.2 mph 72 % 0.0 in 174.0 W/m2 CLR
10:05 6.7 °F 2.0 °F 1020.5 in NW 35.2 mph 35.2 mph 72 % 0.0 in 181.0 W/m2 CLR
10:10 6.7 °F 2.2 °F 1020.9 in NNW 27.8 mph 28.0 mph 73 % 0.0 in 179.0 W/m2 CLR
10:15 6.7 °F 2.0 °F 1020.9 in NW 40.7 mph 40.7 mph 72 % 0.0 in 171.0 W/m2 CLR
10:20 6.7 °F 2.0 °F 1020.9 in NW 33.3 mph 33.3 mph 72 % 0.0 in 178.0 W/m2 CLR
10:25 6.7 °F 1.8 °F 1020.9 in NNW 35.2 mph 35.2 mph 71 % 0.0 in 220.0 W/m2 CLR
10:30 7.2 °F 2.5 °F 1020.9 in NW 43.4 mph 43.4 mph 72 % 0.0 in 218.0 W/m2 CLR
10:35 7.2 °F 2.1 °F 1020.5 in NNW 42.6 mph 42.6 mph 70 % 0.0 in 225.0 W/m2 CLR
10:40 7.2 °F 2.1 °F 1020.5 in NW 38.9 mph 38.9 mph 70 % 0.0 in 234.0 W/m2 CLR
10:45 7.2 °F 1.9 °F 1020.9 in North 51.8 mph 51.8 mph 69 % 0.0 in 243.0 W/m2 CLR
10:50 7.2 °F 2.1 °F 1020.5 in North 38.9 mph 38.9 mph 70 % 0.0 in 274.0 W/m2 CLR
10:55 7.2 °F 2.1 °F 1020.9 in North 51.8 mph 51.8 mph 70 % 0.0 in 301.0 W/m2 CLR
11:00 7.8 °F 2.4 °F 1020.5 in NNW 42.6 mph 42.6 mph 69 % 0.0 in 316.0 W/m2 CLR
11:05 7.8 °F 2.4 °F 1020.5 in NNW 42.6 mph 42.6 mph 69 % 0.0 in 309.0 W/m2 CLR
11:10 7.8 °F 2.4 °F 1020.9 in North 42.6 mph 42.6 mph 69 % 0.0 in 403.0 W/m2 CLR
11:15 7.8 °F 2.4 °F 1020.5 in NW 38.9 mph 38.9 mph 69 % 0.0 in 399.0 W/m2 CLR
11:20 7.8 °F 2.2 °F 1020.5 in NNW 44.4 mph 44.4 mph 68 % 0.0 in 399.0 W/m2 CLR
11:25 8.3 °F 2.6 °F 1020.9 in NNW 31.5 mph 31.5 mph 67 % 0.0 in 399.0 W/m2 CLR
11:30 8.3 °F 2.3 °F 1020.9 in NW 31.5 mph 31.5 mph 66 % 0.0 in 366.0 W/m2 CLR
11:31 8.3 °F 2.3 °F 1020.9 in NW 35.2 mph 35.2 mph 66 % 0.0 in 338.0 W/m2 CLR
11:36 8.3 °F 2.3 °F 1020.5 in NW 37.0 mph 37.0 mph 66 % 0.0 in 415.0 W/m2 CLR
11:41 8.3 °F 2.3 °F 1020.5 in NNW 44.4 mph 44.4 mph 66 % 0.0 in 497.0 W/m2 CLR
11:46 8.9 °F 2.7 °F 1020.5 in NW 40.2 mph 40.2 mph 65 % 0.0 in 585.0 W/m2 CLR
11:51 8.9 °F 2.7 °F 1020.9 in NW 42.6 mph 42.6 mph 65 % 0.0 in 563.0 W/m2 CLR
11:56 9.4 °F 2.7 °F 1020.9 in NNW 42.6 mph 42.6 mph 63 % 0.0 in 563.0 W/m2 CLR
12:01 9.4 °F 2.5 °F 1020.9 in North 43.4 mph 43.4 mph 62 % 0.0 in 513.0 W/m2 CLR
12:06 9.4 °F 2.7 °F 1020.9 in NNW 46.3 mph 46.3 mph 63 % 0.0 in 589.0 W/m2 CLR
12:11 9.4 °F 2.7 °F 1020.5 in NNW 31.5 mph 31.5 mph 63 % 0.0 in 552.0 W/m2 CLR
12:16 9.4 °F 2.3 °F 1020.5 in North 40.7 mph 40.7 mph 61 % 0.0 in 526.0 W/m2 CLR
12:21 9.4 °F 2.5 °F 1020.5 in North 42.6 mph 42.6 mph 62 % 0.0 in 534.0 W/m2 CLR
12:26 9.4 °F 2.3 °F 1020.9 in North 40.7 mph 40.7 mph 61 % 0.0 in 554.0 W/m2 CLR
12:31 9.4 °F 2.5 °F 1020.5 in NNW 38.9 mph 38.9 mph 62 % 0.0 in 445.0 W/m2 CLR
12:36 9.4 °F 2.5 °F 1020.5 in NW 40.7 mph 40.7 mph 62 % 0.0 in 388.0 W/m2 CLR
12:41 9.4 °F 2.3 °F 1020.2 in North 42.6 mph 42.6 mph 61 % 0.0 in 431.0 W/m2 CLR
12:46 9.4 °F 2.5 °F 1020.5 in NNW 35.2 mph 35.2 mph 62 % 0.0 in 520.0 W/m2 CLR
12:51 9.4 °F 2.3 °F 1020.2 in NW 42.6 mph 42.6 mph 61 % 0.0 in 408.0 W/m2 CLR
12:56 9.4 °F 2.3 °F 1020.2 in NW 42.6 mph 42.6 mph 61 % 0.0 in 552.0 W/m2 CLR
13:01 9.4 °F 2.1 °F 1020.2 in NNW 37.0 mph 37.0 mph 60 % 0.0 in 439.0 W/m2 CLR
13:06 9.4 °F 2.1 °F 1020.2 in NNW 35.4 mph 35.4 mph 60 % 0.0 in 454.0 W/m2 CLR
13:11 9.4 °F 2.1 °F 1020.2 in North 37.0 mph 37.0 mph 60 % 0.0 in 522.0 W/m2 CLR
13:16 9.4 °F 1.6 °F 1020.2 in NNW 37.0 mph 37.0 mph 58 % 0.0 in 429.0 W/m2 CLR
13:21 9.4 °F 1.6 °F 1020.2 in North 27.8 mph 27.8 mph 58 % 0.0 in 350.0 W/m2 CLR
13:26 9.4 °F 1.8 °F 1019.9 in North 29.6 mph 29.6 mph 59 % 0.0 in 619.0 W/m2 CLR
13:31 10.0 °F 2.1 °F 1019.9 in NW 27.8 mph 27.8 mph 58 % 0.0 in 612.0 W/m2 CLR
13:36 10.6 °F 1.9 °F 1019.9 in North 33.8 mph 33.8 mph 55 % 0.0 in 601.0 W/m2 CLR
13:41 11.1 °F 2.2 °F 1019.5 in North 24.1 mph 24.1 mph 54 % 0.0 in 598.0 W/m2 CLR
13:46 11.1 °F 1.9 °F 1019.9 in NNW 40.7 mph 40.7 mph 53 % 0.0 in 592.0 W/m2 CLR
13:51 11.1 °F 1.6 °F 1019.9 in North 38.9 mph 38.9 mph 52 % 0.0 in 591.0 W/m2 CLR
13:56 11.1 °F 1.9 °F 1019.5 in NNW 31.5 mph 31.5 mph 53 % 0.0 in 589.0 W/m2 CLR
14:01 11.1 °F 1.9 °F 1019.2 in North 32.2 mph 32.2 mph 53 % 0.0 in 585.0 W/m2 CLR
14:06 11.1 °F 1.3 °F 1019.2 in NNW 44.4 mph 44.4 mph 51 % 0.0 in 578.0 W/m2 CLR
14:11 11.1 °F 1.3 °F 1019.2 in NW 46.3 mph 46.3 mph 51 % 0.0 in 578.0 W/m2 CLR
14:16 11.1 °F 1.6 °F 1019.2 in North 45.1 mph 45.1 mph 52 % 0.0 in 575.0 W/m2 CLR
14:21 11.1 °F 1.3 °F 1019.2 in North 50.0 mph 50.0 mph 51 % 0.0 in 570.0 W/m2 CLR
14:26 11.1 °F 1.6 °F 1018.8 in NNW 42.6 mph 42.6 mph 52 % 0.0 in 563.0 W/m2 CLR
14:31 11.1 °F 1.9 °F 1018.8 in NNW 37.0 mph 37.0 mph 53 % 0.0 in 557.0 W/m2 CLR
14:36 11.1 °F 1.3 °F 1018.8 in NNW 42.6 mph 42.6 mph 51 % 0.0 in 555.0 W/m2 CLR
14:41 11.1 °F 1.1 °F 1018.8 in NNW 42.6 mph 42.6 mph 50 % 0.0 in 496.0 W/m2 CLR
14:46 10.6 °F 0.3 °F 1018.8 in North 50.0 mph 50.0 mph 49 % 0.0 in 534.0 W/m2 CLR
14:51 11.1 °F 1.3 °F 1018.8 in North 44.4 mph 44.4 mph 51 % 0.0 in 547.0 W/m2 CLR
14:56 11.1 °F 1.3 °F 1018.8 in North 42.6 mph 42.6 mph 51 % 0.0 in 538.0 W/m2 CLR
15:01 11.1 °F 1.3 °F 1018.8 in NNW 37.0 mph 37.0 mph 51 % 0.0 in 522.0 W/m2 CLR
15:06 11.1 °F 1.3 °F 1018.8 in NNW 37.0 mph 37.0 mph 51 % 0.0 in 513.0 W/m2 CLR
15:11 11.1 °F 1.3 °F 1018.8 in NNW 37.0 mph 37.0 mph 51 % 0.0 in 499.0 W/m2 CLR
15:16 11.1 °F 1.1 °F 1018.8 in North 46.7 mph 46.7 mph 50 % 0.0 in 489.0 W/m2 CLR
15:21 11.1 °F 1.3 °F 1018.8 in NNW 31.5 mph 31.5 mph 51 % 0.0 in 476.0 W/m2 CLR
15:26 11.1 °F 1.3 °F 1018.8 in NNW 31.5 mph 31.5 mph 51 % 0.0 in 469.0 W/m2 CLR
15:31 11.1 °F 0.8 °F 1018.8 in NNW 50.0 mph 50.0 mph 49 % 0.0 in 455.0 W/m2 CLR
15:36 11.1 °F 1.1 °F 1019.2 in North 38.9 mph 38.9 mph 50 % 0.0 in 446.0 W/m2 CLR
15:41 10.6 °F 0.3 °F 1019.2 in NW 48.1 mph 48.1 mph 49 % 0.0 in 434.0 W/m2 CLR
15:46 10.6 °F 0.3 °F 1018.8 in NW 37.0 mph 37.0 mph 49 % 0.0 in 424.0 W/m2 CLR
15:51 10.6 °F 0.6 °F 1018.8 in NNW 25.9 mph 25.9 mph 50 % 0.0 in 413.0 W/m2 CLR
15:56 11.1 °F 0.2 °F 1018.8 in NNW 38.9 mph 38.9 mph 47 % 0.0 in 399.0 W/m2 CLR
16:01 10.6 °F -0.9 °F 1018.8 in NW 42.6 mph 42.6 mph 45 % 0.0 in 385.0 W/m2 CLR
16:06 10.6 °F -0.6 °F 1018.8 in NW 38.9 mph 38.9 mph 46 % 0.0 in 376.0 W/m2 CLR
16:11 10.6 °F -0.9 °F 1018.8 in NNW 48.1 mph 48.1 mph 45 % 0.0 in 362.0 W/m2 CLR
16:16 10.6 °F -0.6 °F 1019.2 in NNW 32.2 mph 32.2 mph 46 % 0.0 in 350.0 W/m2 CLR
16:21 10.6 °F -0.9 °F 1018.8 in NW 35.4 mph 35.4 mph 45 % 0.0 in 334.0 W/m2 CLR
16:26 10.0 °F -1.1 °F 1019.2 in NNW 38.6 mph 38.6 mph 46 % 0.0 in 320.0 W/m2 CLR
16:31 10.0 °F -1.1 °F 1019.2 in North 42.6 mph 42.6 mph 46 % 0.0 in 306.0 W/m2 CLR
16:36 10.0 °F -1.1 °F 1019.2 in NNW 42.6 mph 42.6 mph 46 % 0.0 in 294.0 W/m2 CLR
16:41 10.0 °F -1.1 °F 1019.2 in North 42.6 mph 42.6 mph 46 % 0.0 in 279.0 W/m2 CLR
16:46 10.0 °F -0.8 °F 1019.2 in NNW 31.5 mph 31.5 mph 47 % 0.0 in 260.0 W/m2 CLR
16:51 9.4 °F -1.1 °F 1019.2 in NNW 31.5 mph 31.5 mph 48 % 0.0 in 246.0 W/m2 CLR
16:56 9.4 °F -1.3 °F 1019.2 in NNW 35.2 mph 35.2 mph 47 % 0.0 in 229.0 W/m2 CLR
17:01 9.4 °F -1.3 °F 1019.2 in North 31.5 mph 31.5 mph 47 % 0.0 in 211.0 W/m2 CLR
17:06 8.9 °F -1.6 °F 1019.2 in North 37.0 mph 37.0 mph 48 % 0.0 in 193.0 W/m2 CLR
17:11 8.9 °F -1.3 °F 1019.2 in NNW 43.4 mph 43.4 mph 49 % 0.0 in 172.0 W/m2 CLR
17:16 8.9 °F -1.8 °F 1019.2 in NNW 42.6 mph 42.6 mph 47 % 0.0 in 156.0 W/m2 CLR
17:21 8.9 °F -2.1 °F 1019.5 in NNW 25.9 mph 25.9 mph 46 % 0.0 in 141.0 W/m2 CLR
17:26 8.9 °F -2.7 °F 1019.5 in NNW 35.2 mph 35.2 mph 44 % 0.0 in 125.0 W/m2 CLR
17:31 8.3 °F -2.9 °F 1019.5 in North 42.6 mph 42.6 mph 45 % 0.0 in 105.0 W/m2 CLR
17:36 8.3 °F -2.9 °F 1019.5 in NNW 40.7 mph 40.7 mph 45 % 0.0 in 83.0 W/m2 CLR
17:41 8.3 °F -2.3 °F 1019.5 in NNW 20.4 mph 24.6 mph 47 % 0.0 in 69.0 W/m2 FEW
17:46 8.3 °F -2.1 °F 1019.5 in North 31.5 mph 31.5 mph 48 % 0.0 in 58.0 W/m2 SCT
17:51 8.3 °F -2.1 °F 1019.5 in NNW 37.0 mph 37.0 mph 48 % 0.0 in 46.0 W/m2 SCT
18:01 7.8 °F -2.3 °F 1019.5 in NNW 37.0 mph 37.0 mph 49 % 0.0 in 25.0 W/m2 BKN
18:07 7.8 °F -2.3 °F 1019.9 in North 31.5 mph 31.5 mph 49 % 0.0 in 18.0 W/m2 BKN
18:12 7.8 °F -2.3 °F 1019.9 in NNW 31.5 mph 31.5 mph 49 % 0.0 in 12.0 W/m2 BKN
18:17 7.2 °F -2.5 °F 1019.5 in NNW 42.6 mph 42.6 mph 50 % 0.0 in 9.0 W/m2 BKN
18:22 7.2 °F -1.7 °F 1019.9 in NNW 44.4 mph 44.4 mph 53 % 0.0 in 7.0 W/m2 BKN
18:27 7.2 °F -1.2 °F 1019.9 in NNW 44.4 mph 44.4 mph 55 % 0.0 in 5.0 W/m2 OVC
18:32 7.2 °F -1.2 °F 1019.9 in NW 33.3 mph 33.3 mph 55 % 0.0 in 0.0 W/m2 OVC
18:37 6.7 °F -1.7 °F 1019.9 in NNW 42.6 mph 42.6 mph 55 % 0.0 in 0.0 W/m2 OVC
18:42 6.7 °F -1.7 °F 1019.9 in NW 27.8 mph 27.8 mph 55 % 0.0 in 0.0 W/m2 CLR
18:47 6.7 °F -1.7 °F 1019.9 in NNW 31.5 mph 31.5 mph 55 % 0.0 in 0.0 W/m2 CLR
18:52 6.7 °F -1.5 °F 1020.2 in NNW 29.6 mph 29.6 mph 56 % 0.0 in 0.0 W/m2 CLR
18:57 6.7 °F -1.5 °F 1020.2 in NNW 37.0 mph 37.0 mph 56 % 0.0 in 0.0 W/m2 CLR
19:02 6.1 °F -1.8 °F 1020.2 in NNW 27.8 mph 27.8 mph 57 % 0.0 in 0.0 W/m2 CLR
19:07 6.1 °F -1.6 °F 1020.5 in North 24.1 mph 24.1 mph 58 % 0.0 in 0.0 W/m2 CLR
19:12 6.1 °F -1.6 °F 1020.5 in NNW 35.2 mph 35.2 mph 58 % 0.0 in 0.0 W/m2 CLR
19:17 6.1 °F -1.6 °F 1020.9 in North 31.5 mph 31.5 mph 58 % 0.0 in 0.0 W/m2 CLR
19:22 6.1 °F -1.6 °F 1020.9 in NNW 33.3 mph 33.3 mph 58 % 0.0 in 0.0 W/m2 CLR
19:27 6.1 °F -1.3 °F 1020.9 in NNW 27.8 mph 27.8 mph 59 % 0.0 in 0.0 W/m2 CLR
19:32 5.6 °F -1.8 °F 1020.9 in North 25.9 mph 25.9 mph 59 % 0.0 in 0.0 W/m2 CLR
19:37 5.6 °F -1.6 °F 1021.2 in NNW 33.3 mph 33.3 mph 60 % 0.0 in 0.0 W/m2 CLR
19:42 5.6 °F -1.6 °F 1021.2 in North 37.0 mph 37.0 mph 60 % 0.0 in 0.0 W/m2 CLR
19:47 5.6 °F -1.6 °F 1021.2 in NNW 33.3 mph 33.3 mph 60 % 0.0 in 0.0 W/m2 CLR
19:52 5.6 °F -1.6 °F 1021.6 in North 25.9 mph 25.9 mph 60 % 0.0 in 0.0 W/m2 CLR
19:57 5.6 °F -1.4 °F 1021.6 in NNW 27.8 mph 27.8 mph 61 % 0.0 in 0.0 W/m2 CLR
20:02 5.6 °F -1.4 °F 1021.6 in NNW 24.1 mph 24.1 mph 61 % 0.0 in 0.0 W/m2 CLR
20:07 5.0 °F -1.7 °F 1021.6 in North 29.6 mph 29.6 mph 62 % 0.0 in 0.0 W/m2 CLR
20:12 5.0 °F -1.7 °F 1021.6 in North 24.1 mph 24.1 mph 62 % 0.0 in 0.0 W/m2 CLR
20:17 5.0 °F -1.4 °F 1021.6 in North 22.2 mph 22.2 mph 63 % 0.0 in 0.0 W/m2 CLR
20:22 5.0 °F -1.4 °F 1021.9 in NNW 22.2 mph 22.2 mph 63 % 0.0 in 0.0 W/m2 CLR
20:27 5.0 °F -1.4 °F 1021.9 in NNW 20.4 mph 20.4 mph 63 % 0.0 in 0.0 W/m2 CLR
20:32 5.0 °F -1.4 °F 1021.9 in NNW 22.2 mph 22.2 mph 63 % 0.0 in 0.0 W/m2 CLR
20:37 4.4 °F -1.8 °F 1021.9 in NNW 18.5 mph 18.5 mph 64 % 0.0 in 0.0 W/m2 CLR
20:42 4.4 °F -1.6 °F 1021.9 in NNW 22.5 mph 22.5 mph 65 % 0.0 in 0.0 W/m2 CLR
20:47 4.4 °F -1.6 °F 1021.9 in NNW 20.4 mph 20.4 mph 65 % 0.0 in 0.0 W/m2 CLR
20:52 4.4 °F -1.6 °F 1021.9 in NW 25.9 mph 25.9 mph 65 % 0.0 in 0.0 W/m2 CLR
20:57 4.4 °F -1.6 °F 1021.9 in NNW 24.1 mph 24.1 mph 65 % 0.0 in 0.0 W/m2 CLR
21:02 4.4 °F -1.6 °F 1021.9 in NW 31.5 mph 31.5 mph 65 % 0.0 in 0.0 W/m2 CLR
21:07 4.4 °F -1.6 °F 1022.2 in NW 25.9 mph 25.9 mph 65 % 0.0 in 0.0 W/m2 CLR
21:12 4.4 °F -1.6 °F 1022.2 in NW 25.9 mph 25.9 mph 65 % 0.0 in 0.0 W/m2 CLR
21:17 4.4 °F -1.6 °F 1022.2 in NNW 27.8 mph 27.8 mph 65 % 0.0 in 0.0 W/m2 CLR
21:22 4.4 °F -1.3 °F 1022.2 in North 25.9 mph 25.9 mph 66 % 0.0 in 0.0 W/m2 CLR
21:27 4.4 °F -1.3 °F 1022.2 in NNW 31.5 mph 31.5 mph 66 % 0.0 in 0.0 W/m2 CLR
21:32 4.4 °F -1.3 °F 1022.2 in NNW 25.9 mph 25.9 mph 66 % 0.0 in 0.0 W/m2 CLR
21:37 3.9 °F -1.7 °F 1022.6 in NNW 20.4 mph 20.4 mph 67 % 0.0 in 0.0 W/m2 CLR
21:42 3.9 °F -1.7 °F 1022.6 in NNW 29.6 mph 29.6 mph 67 % 0.0 in 0.0 W/m2 CLR
21:47 3.9 °F -1.5 °F 1022.6 in NW 16.7 mph 16.7 mph 68 % 0.0 in 0.0 W/m2 CLR
21:52 3.9 °F -1.5 °F 1022.6 in NW 22.2 mph 22.2 mph 68 % 0.0 in 0.0 W/m2 CLR
21:57 3.9 °F -1.3 °F 1022.6 in NNW 25.9 mph 25.9 mph 69 % 0.0 in 0.0 W/m2 CLR
22:02 3.3 °F -1.8 °F 1022.6 in NW 29.6 mph 29.6 mph 69 % 0.0 in 0.0 W/m2 CLR
22:07 3.9 °F -1.3 °F 1022.6 in NW 18.5 mph 18.5 mph 69 % 0.0 in 0.0 W/m2 CLR
22:12 3.3 °F -2.0 °F 1022.6 in NW 22.2 mph 22.2 mph 68 % 0.0 in 0.0 W/m2 CLR
22:17 3.3 °F -2.0 °F 1022.9 in NW 20.4 mph 20.4 mph 68 % 0.0 in 0.0 W/m2 CLR
22:22 3.3 °F -2.0 °F 1022.6 in NNW 20.4 mph 20.4 mph 68 % 0.0 in 0.0 W/m2 CLR
22:27 3.3 °F -2.0 °F 1022.9 in NW 22.2 mph 22.2 mph 68 % 0.0 in 0.0 W/m2 CLR
22:32 3.3 °F -2.0 °F 1022.9 in NW 25.9 mph 25.9 mph 68 % 0.0 in 0.0 W/m2 CLR
22:37 3.3 °F -2.0 °F 1022.9 in NW 22.2 mph 22.2 mph 68 % 0.0 in 0.0 W/m2 CLR
22:43 3.3 °F -2.2 °F 1022.9 in NW 24.1 mph 24.1 mph 67 % 0.0 in 0.0 W/m2 CLR
22:48 3.3 °F -2.2 °F 1022.9 in WNW 25.9 mph 25.9 mph 67 % 0.0 in 0.0 W/m2 CLR
22:53 3.3 °F -2.0 °F 1022.9 in WNW 22.2 mph 22.2 mph 68 % 0.0 in 0.0 W/m2 CLR
22:58 3.3 °F -2.0 °F 1022.9 in NW 27.8 mph 27.8 mph 68 % 0.0 in 0.0 W/m2 CLR
23:03 2.8 °F -2.3 °F 1023.2 in NW 24.1 mph 24.1 mph 69 % 0.0 in 0.0 W/m2 CLR
23:08 2.8 °F -2.3 °F 1023.2 in NW 19.3 mph 19.3 mph 69 % 0.0 in 0.0 W/m2 CLR
23:13 2.8 °F -2.3 °F 1023.2 in NW 18.5 mph 18.5 mph 69 % 0.0 in 0.0 W/m2 CLR
23:18 2.8 °F -2.2 °F 1023.2 in NW 20.4 mph 20.4 mph 70 % 0.0 in 0.0 W/m2 CLR
23:23 2.8 °F -2.2 °F 1023.2 in NW 19.3 mph 19.3 mph 70 % 0.0 in 0.0 W/m2 CLR
23:28 2.8 °F -2.2 °F 1023.2 in West 18.5 mph 18.5 mph 70 % 0.0 in 0.0 W/m2 CLR
23:33 2.8 °F -2.2 °F 1023.2 in WNW 18.5 mph 18.5 mph 70 % 0.0 in 0.0 W/m2 CLR
23:38 2.8 °F -2.2 °F 1023.6 in NW 18.5 mph 18.5 mph 70 % 0.0 in 0.0 W/m2 CLR
23:43 2.8 °F -1.9 °F 1023.6 in NW 20.9 mph 20.9 mph 71 % 0.0 in 0.0 W/m2 CLR
23:48 2.8 °F -1.9 °F 1023.6 in NNW 16.7 mph 16.7 mph 71 % 0.0 in 0.0 W/m2 CLR
23:53 2.8 °F -1.9 °F 1023.6 in NW 19.3 mph 19.3 mph 71 % 0.0 in 0.0 W/m2 CLR
23:58 2.8 °F -1.9 °F 1023.6 in NW 14.8 mph 14.8 mph 71 % 0.0 in 0.0 W/m2 CLR
Lo Temps de Massalio
Compliments of Weather Underground - 1.25 mb